Time;durP1;ratioP1;P1;durP2;ratioP2;P2;SDS_P1;SDS_P2;PMS_P1;PMS_P2;Temp;Humidity;BMP_temperature;BMP_pressure;BME280_temperature;BME280_humidity;BME280_pressure;Samples;Min_cycle;Max_cycle;Signal;HPM_P1;HPM_P2
2022/05/09 00:00:32;;;;;;;11.10;9.90;;;13.10;25.10;;;;;;7377795;19;20018;-60
2022/05/09 00:03:04;;;;;;;11.38;9.88;;;13.10;25.00;;;;;;7365269;19;20014;-60
2022/05/09 00:05:37;;;;;;;12.02;10.50;;;13.20;24.20;;;;;;7364185;19;20010;-60
2022/05/09 00:08:12;;;;;;;13.68;10.82;;;13.20;23.80;;;;;;7364863;19;20010;-61
2022/05/09 00:10:42;;;;;;;13.05;11.00;;;13.00;24.10;;;;;;7354821;19;20019;-59
2022/05/09 00:13:12;;;;;;;12.05;10.25;;;12.90;25.20;;;;;;7365413;19;20052;-61
2022/05/09 00:15:51;;;;;;;12.25;10.75;;;12.80;26.60;;;;;;7385429;19;20015;-61
2022/05/09 00:18:22;;;;;;;12.05;10.77;;;12.80;26.50;;;;;;7363453;19;20386;-61
2022/05/09 00:20:51;;;;;;;11.93;10.68;;;12.80;26.30;;;;;;7360847;19;20081;-60
2022/05/09 00:23:21;;;;;;;11.88;10.30;;;12.60;27.30;;;;;;7364131;19;20010;-61
2022/05/09 00:25:51;;;;;;;14.70;12.10;;;12.50;28.70;;;;;;7364477;19;20010;-61
2022/05/09 00:28:21;;;;;;;12.30;11.00;;;12.50;29.60;;;;;;7360226;19;20010;-61
2022/05/09 00:30:54;;;;;;;12.35;10.90;;;12.40;30.30;;;;;;7382608;19;20026;-61
2022/05/09 00:33:24;;;;;;;13.20;11.57;;;12.40;30.50;;;;;;7365965;19;20021;-61
2022/05/09 00:35:55;;;;;;;14.75;11.77;;;12.40;30.60;;;;;;7364034;19;20010;-61
2022/05/09 00:38:25;;;;;;;14.20;12.00;;;12.40;31.50;;;;;;7355651;19;20093;-60
2022/05/09 00:43:42;;;;;;;13.10;11.68;;;12.40;32.50;;;;;;7364689;19;20054;-61
2022/05/09 00:46:14;;;;;;;12.98;11.25;;;12.50;32.10;;;;;;7365986;19;20014;-61
2022/05/09 00:48:44;;;;;;;14.88;11.80;;;12.40;31.00;;;;;;7381662;19;20086;-61
2022/05/09 00:51:18;;;;;;;15.13;11.80;;;12.50;31.20;;;;;;7360813;19;20081;-59
2022/05/09 00:53:50;;;;;;;13.88;11.27;;;12.40;31.60;;;;;;7363301;19;20006;-59
2022/05/09 00:56:25;;;;;;;14.40;12.23;;;12.40;31.80;;;;;;7365276;19;20914;-60
2022/05/09 00:58:59;;;;;;;13.07;11.77;;;12.50;31.80;;;;;;7356951;19;20453;-60
2022/05/09 01:01:32;;;;;;;;;;;12.50;31.70;;;;;;7363255;19;20861;-60
2022/05/09 01:04:08;;;;;;;13.85;12.35;;;12.50;31.50;;;;;;7364198;19;19925;-60
2022/05/09 01:06:39;;;;;;;14.90;12.60;;;12.60;31.10;;;;;;7386165;19;20017;-60
2022/05/09 01:09:10;;;;;;;14.65;12.13;;;12.60;30.70;;;;;;7354777;19;20591;-60
2022/05/09 01:11:42;;;;;;;16.90;11.95;;;12.60;30.20;;;;;;7361544;19;20026;-60
2022/05/09 01:14:17;;;;;;;14.65;12.18;;;12.60;29.30;;;;;;7363452;19;20516;-60
2022/05/09 01:16:52;;;;;;;17.05;11.90;;;12.50;30.20;;;;;;7364830;19;20013;-60
2022/05/09 01:19:30;;;;;;;16.20;12.45;;;12.40;30.50;;;;;;7356091;19;20018;-60
2022/05/09 01:22:04;;;;;;;17.38;11.88;;;12.40;30.60;;;;;;7363443;19;20090;-60
2022/05/09 01:24:34;;;;;;;14.10;11.50;;;12.40;31.20;;;;;;7384794;19;20033;-60
2022/05/09 01:27:04;;;;;;;15.02;12.32;;;12.20;32.20;;;;;;7362236;19;20011;-60
2022/05/09 01:29:41;;;;;;;14.60;11.45;;;12.30;32.70;;;;;;7355144;19;20488;-60
2022/05/09 01:32:14;;;;;;;15.85;12.20;;;12.20;32.20;;;;;;7364316;19;20619;-60
2022/05/09 01:34:49;;;;;;;14.82;11.40;;;12.10;32.70;;;;;;7361325;19;20093;-60
2022/05/09 01:37:23;;;;;;;13.88;12.13;;;12.10;33.00;;;;;;7371309;19;20015;-60
2022/05/09 01:39:53;;;;;;;14.10;12.18;;;12.10;33.80;;;;;;7382991;19;20019;-60
2022/05/09 01:42:23;;;;;;;15.95;11.80;;;12.00;33.70;;;;;;7369658;19;20010;-60
2022/05/09 01:44:53;;;;;;;14.55;12.27;;;12.00;33.60;;;;;;7368123;19;20028;-60
2022/05/09 01:50:05;;;;;;;13.23;11.93;;;11.90;34.60;;;;;;7357894;19;20010;-60
2022/05/09 01:52:39;;;;;;;15.23;12.40;;;11.90;35.00;;;;;;7368312;19;20011;-60
2022/05/09 01:55:09;;;;;;;15.82;12.35;;;11.90;35.50;;;;;;7368490;19;20018;-60
2022/05/09 01:57:39;;;;;;;15.23;11.55;;;11.90;35.80;;;;;;7392459;19;20015;-60
2022/05/09 02:00:11;;;;;;;14.50;12.93;;;11.90;35.00;;;;;;7358594;19;20018;-60
2022/05/09 02:02:41;;;;;;;14.82;12.73;;;11.90;35.60;;;;;;7370715;19;20526;-60
2022/05/09 02:05:12;;;;;;;15.02;12.68;;;11.80;36.10;;;;;;7368741;19;20025;-60
2022/05/09 02:07:45;;;;;;;13.63;12.13;;;11.90;36.10;;;;;;7368168;19;20118;-60
2022/05/09 02:10:16;;;;;;;12.68;11.38;;;11.90;35.70;;;;;;7359621;19;20036;-60
2022/05/09 02:12:46;;;;;;;13.82;12.35;;;11.90;35.70;;;;;;7389975;19;20014;-60
2022/05/09 02:15:16;;;;;;;15.07;12.23;;;11.80;35.30;;;;;;7367899;19;20158;-60
2022/05/09 02:17:47;;;;;;;14.55;12.13;;;11.70;36.00;;;;;;7370183;19;20013;-60
2022/05/09 02:20:17;;;;;;;14.25;12.35;;;11.70;36.70;;;;;;7361180;19;20367;-60
2022/05/09 02:22:49;;;;;;;15.30;13.15;;;11.70;37.00;;;;;;7367601;19;20109;-64
2022/05/09 02:25:33;;;;;;;17.98;12.98;;;11.70;37.00;;;;;;7369810;19;20014;-64
2022/05/09 02:28:06;;;;;;;15.70;12.50;;;11.80;36.80;;;;;;7370292;19;20086;-64
2022/05/09 02:30:38;;;;;;;15.07;13.35;;;11.80;36.40;;;;;;7382092;19;20068;-64
2022/05/09 02:33:09;;;;;;;16.17;13.13;;;11.80;36.40;;;;;;7368826;19;20021;-64
2022/05/09 02:35:40;;;;;;;15.48;13.18;;;11.80;36.10;;;;;;7368508;19;20021;-64
2022/05/09 02:38:13;;;;;;;14.70;12.35;;;11.70;36.40;;;;;;7369039;19;20024;-64
2022/05/09 02:40:43;;;;;;;14.50;12.55;;;11.70;36.30;;;;;;7359090;19;20006;-64
2022/05/09 02:43:13;;;;;;;15.43;12.55;;;11.60;36.70;;;;;;7367813;19;20115;-64
2022/05/09 02:45:43;;;;;;;13.88;12.38;;;11.60;37.00;;;;;;7387048;19;20016;-64
2022/05/09 02:48:14;;;;;;;16.08;13.05;;;11.60;37.90;;;;;;7367469;19;20116;-64
2022/05/09 02:50:43;;;;;;;15.32;13.43;;;11.50;37.20;;;;;;7359785;19;20072;-64
2022/05/09 02:53:16;;;;;;;15.52;12.52;;;11.50;38.50;;;;;;7369036;19;20003;-64
2022/05/09 02:55:46;;;;;;;17.15;13.27;;;11.50;38.40;;;;;;7367144;19;20006;-64
2022/05/09 02:58:16;;;;;;;14.55;13.07;;;11.40;39.00;;;;;;7368716;19;20476;-64
2022/05/09 03:00:46;;;;;;;15.05;13.07;;;11.40;39.30;;;;;;7382736;19;20163;-64
2022/05/09 03:06:00;;;;;;;15.57;12.68;;;11.40;39.50;;;;;;7367880;19;20014;-64
2022/05/09 03:08:32;;;;;;;21.15;14.57;;;11.40;39.70;;;;;;7365132;19;20015;-64
2022/05/09 03:11:02;;;;;;;16.70;13.13;;;11.30;39.90;;;;;;7364406;19;20070;-63
2022/05/09 03:13:33;;;;;;;16.60;14.25;;;11.30;39.90;;;;;;7368987;19;20509;-64
2022/05/09 03:16:04;;;;;;;16.67;14.88;;;11.30;40.30;;;;;;7387863;19;20015;-64
2022/05/09 03:18:34;;;;;;;17.95;13.82;;;11.20;40.80;;;;;;7363493;19;20003;-64
2022/05/09 03:21:04;;;;;;;17.20;13.68;;;11.10;41.40;;;;;;7363001;19;20062;-63
2022/05/09 03:23:37;;;;;;;16.92;14.70;;;11.10;42.20;;;;;;7367949;19;20362;-64
2022/05/09 03:26:07;;;;;;;18.27;15.18;;;11.10;42.20;;;;;;7368281;19;20006;-64
2022/05/09 03:28:37;;;;;;;19.42;14.82;;;11.10;42.20;;;;;;7222796;19;2734464;-63
2022/05/09 03:31:07;;;;;;;19.55;15.63;;;11.10;42.90;;;;;;7384644;19;20090;-65
2022/05/09 03:33:39;;;;;;;19.88;15.88;;;11.10;42.90;;;;;;7390607;19;20482;-63
2022/05/09 03:36:10;;;;;;;16.45;14.75;;;11.00;42.90;;;;;;7369805;19;20007;-63
2022/05/09 03:38:42;;;;;;;18.00;14.88;;;11.00;43.00;;;;;;7364530;19;20013;-63
2022/05/09 03:41:12;;;;;;;18.42;14.27;;;10.90;43.00;;;;;;7365368;19;20419;-63
2022/05/09 03:43:42;;;;;;;19.90;15.25;;;10.90;44.00;;;;;;7368825;19;20017;-62
2022/05/09 03:46:12;;;;;;;17.70;15.32;;;10.90;44.50;;;;;;7368932;19;20015;-63
2022/05/09 03:48:42;;;;;;;18.25;15.13;;;11.00;44.80;;;;;;7385374;19;20371;-64
2022/05/09 03:51:12;;;;;;;20.20;15.95;;;11.00;44.20;;;;;;7365017;19;20017;-62
2022/05/09 03:53:45;;;;;;;19.45;15.20;;;11.00;43.70;;;;;;7368885;19;20471;-63
2022/05/09 03:56:15;;;;;;;18.65;15.45;;;11.00;43.50;;;;;;7368989;19;20354;-64
2022/05/09 03:58:45;;;;;;;20.77;15.85;;;11.00;43.80;;;;;;7362239;19;20839;-62
2022/05/09 04:01:14;;;;;;;20.10;15.73;;;11.00;43.20;;;;;;7365631;19;20011;-65
2022/05/09 04:03:46;;;;;;;18.58;15.05;;;10.90;43.70;;;;;;7388989;19;20375;-63
2022/05/09 04:06:15;;;;;;;22.05;15.25;;;10.90;43.50;;;;;;7368797;19;20011;-63
2022/05/09 04:08:48;;;;;;;16.73;14.88;;;11.00;43.80;;;;;;7362679;19;20110;-63
2022/05/09 04:11:18;;;;;;;17.27;15.00;;;11.30;42.30;;;;;;7366766;19;20097;-63
2022/05/09 04:13:48;;;;;;;17.45;14.43;;;11.80;37.90;;;;;;7368787;19;20010;-63
2022/05/09 04:19:00;;;;;;;17.02;13.95;;;12.10;32.30;;;;;;7381912;19;20013;-63
2022/05/09 04:21:30;;;;;;;19.92;14.27;;;11.70;33.00;;;;;;7367046;19;20462;-63
2022/05/09 04:24:03;;;;;;;15.85;14.15;;;11.50;35.50;;;;;;7367679;19;20011;-63
2022/05/09 04:26:33;;;;;;;19.00;13.57;;;11.70;35.50;;;;;;7368064;19;20053;-63
2022/05/09 04:29:04;;;;;;;16.50;13.70;;;12.60;28.40;;;;;;7359108;19;20075;-63
2022/05/09 04:31:34;;;;;;;16.27;13.48;;;13.20;22.20;;;;;;7366826;19;20007;-63
2022/05/09 04:34:04;;;;;;;16.52;12.48;;;13.50;15.50;;;;;;7388563;19;20021;-63
2022/05/09 04:36:35;;;;;;;14.27;11.85;;;13.70;11.80;;;;;;7365948;19;20017;-63
2022/05/09 04:39:08;;;;;;;14.18;12.02;;;14.20;10.70;;;;;;7358617;19;20003;-63
2022/05/09 04:41:38;;;;;;;13.95;11.93;;;14.30;7.80;;;;;;7365913;19;20104;-62
2022/05/09 04:44:08;;;;;;;15.57;11.32;;;14.90;5.90;;;;;;7367628;19;20081;-62
2022/05/09 04:46:38;;;;;;;15.25;11.57;;;15.10;2.60;;;;;;7365701;19;20098;-63
2022/05/09 04:49:08;;;;;;;12.68;10.63;;;15.40;1.00;;;;;;7363614;19;20015;-64
2022/05/09 04:51:38;;;;;;;11.98;10.77;;;15.50;1.00;;;;;;7387674;19;20074;-63
2022/05/09 04:54:10;;;;;;;13.70;10.88;;;16.40;1.00;;;;;;7365734;19;20014;-63
2022/05/09 04:56:41;;;;;;;13.93;11.00;;;16.80;1.00;;;;;;7366922;19;20007;-63
2022/05/09 04:59:11;;;;;;;12.48;10.15;;;17.50;1.00;;;;;;7359603;19;20010;-63
2022/05/09 05:01:40;;;;;;;13.43;10.88;;;17.80;1.00;;;;;;7365566;19;20105;-63
2022/05/09 05:04:10;;;;;;;11.55;9.68;;;17.70;1.00;;;;;;7366120;19;20015;-63
2022/05/09 05:06:40;;;;;;;17.85;9.75;;;17.80;1.00;;;;;;7388552;19;20011;-63
2022/05/09 05:09:13;;;;;;;11.60;9.88;;;17.20;1.00;;;;;;7356252;19;20006;-63
2022/05/09 05:11:43;;;;;;;12.90;10.88;;;17.40;1.00;;;;;;7365119;19;20020;-63
2022/05/09 05:14:12;;;;;;;12.10;9.93;;;17.60;1.00;;;;;;7365862;19;20018;-63
2022/05/09 05:19:24;;;;;;;11.68;10.48;;;18.40;1.00;;;;;;7357909;19;20014;-63
2022/05/09 05:21:54;;;;;;;13.50;10.52;;;18.70;1.00;;;;;;7386319;19;20090;-63
2022/05/09 05:24:27;;;;;;;11.77;10.15;;;18.40;1.00;;;;;;7363619;19;20007;-63
2022/05/09 05:26:57;;;;;;;12.25;10.48;;;18.20;1.00;;;;;;7365248;19;20010;-64
2022/05/09 05:29:27;;;;;;;12.30;10.50;;;18.60;1.00;;;;;;7355002;19;20358;-64
2022/05/09 05:31:58;;;;;;;13.48;11.20;;;17.90;1.00;;;;;;7363683;19;20093;-64
2022/05/09 05:34:28;;;;;;;12.82;11.32;;;18.40;1.00;;;;;;7364261;19;20012;-64
2022/05/09 05:36:57;;;;;;;13.18;11.13;;;18.40;1.00;;;;;;7387306;19;20018;-62
2022/05/09 05:39:31;;;;;;;13.10;11.50;;;18.50;1.00;;;;;;7355544;19;20018;-64
2022/05/09 05:42:01;;;;;;;12.33;11.03;;;18.40;1.00;;;;;;7363634;19;20007;-63
2022/05/09 05:44:31;;;;;;;13.23;11.25;;;18.20;1.00;;;;;;7363911;19;20013;-63
2022/05/09 05:47:01;;;;;;;15.70;11.18;;;17.80;1.00;;;;;;7364784;19;20019;-63
2022/05/09 05:49:31;;;;;;;15.55;11.95;;;17.30;1.00;;;;;;7356635;19;20021;-63
2022/05/09 05:52:03;;;;;;;14.70;11.43;;;15.40;1.00;;;;;;7384958;19;20010;-63
2022/05/09 05:54:40;;;;;;;13.45;11.90;;;15.00;3.70;;;;;;7363378;19;20015;-63
2022/05/09 05:57:17;;;;;;;13.38;11.98;;;15.00;4.50;;;;;;7365089;19;20086;-63
2022/05/09 05:59:54;;;;;;;20.42;11.85;;;14.90;5.30;;;;;;7355738;19;20017;-63
2022/05/09 06:02:25;;;;;;;13.75;11.05;;;14.90;4.00;;;;;;7363356;19;20010;-63
2022/05/09 06:04:55;;;;;;;13.07;11.48;;;14.90;7.10;;;;;;7363654;19;20348;-63
2022/05/09 06:07:25;;;;;;;13.73;10.85;;;14.90;5.90;;;;;;7365326;19;20164;-64
2022/05/09 06:09:58;;;;;;;11.38;10.20;;;15.00;3.70;;;;;;7375574;19;20470;-64
2022/05/09 06:12:28;;;;;;;12.82;11.20;;;14.90;5.00;;;;;;7363518;19;20484;-64
2022/05/09 06:17:40;;;;;;;11.80;10.50;;;15.60;2.90;;;;;;7362494;19;20006;-62
2022/05/09 06:20:14;;;;;;;12.90;10.60;;;15.50;1.00;;;;;;7355704;19;20017;-63
2022/05/09 06:22:44;;;;;;;13.32;11.00;;;16.70;1.00;;;;;;7368308;19;20114;-63
2022/05/09 06:25:18;;;;;;;12.70;10.30;;;18.00;1.00;;;;;;7369530;19;20363;-65
2022/05/09 06:27:48;;;;;;;12.30;11.00;;;18.70;1.00;;;;;;7391866;19;20082;-64
2022/05/09 06:30:20;;;;;;;12.23;10.10;;;18.90;1.00;;;;;;7359337;19;20061;-63
2022/05/09 06:32:50;;;;;;;14.98;9.98;;;18.00;1.00;;;;;;7371817;19;20385;-63
2022/05/09 06:35:24;;;;;;;12.77;9.82;;;16.80;1.00;;;;;;7370545;19;20010;-62
2022/05/09 06:37:59;;;;;;;11.38;10.18;;;16.30;1.00;;;;;;7371538;19;20070;-63
2022/05/09 06:40:33;;;;;;;13.05;10.32;;;16.20;1.00;;;;;;7360283;19;20026;-63
2022/05/09 06:43:03;;;;;;;;;;;16.30;1.00;;;;;;7393587;19;20021;-64
2022/05/09 06:45:34;;;;;;;15.50;9.35;;;16.00;1.00;;;;;;7368575;19;19931;-64
2022/05/09 06:48:05;;;;;;;15.90;10.10;;;15.90;1.00;;;;;;7370567;19;20006;-64
2022/05/09 06:50:37;;;;;;;9.25;8.30;;;16.20;1.00;;;;;;7361098;19;20006;-62
2022/05/09 06:53:07;;;;;;;10.65;9.43;;;16.20;1.00;;;;;;7369460;19;20010;-63
2022/05/09 06:55:50;;;;;;;11.25;9.35;;;16.40;1.00;;;;;;7368173;19;20006;-63
2022/05/09 06:58:24;;;;;;;11.88;8.98;;;16.30;1.00;;;;;;7367438;19;20359;-65
2022/05/09 07:00:55;;;;;;;;;;;16.30;1.00;;;;;;7385029;19;20018;-64
2022/05/09 07:03:25;;;;;;;11.60;9.68;;;16.40;1.00;;;;;;7370156;19;19903;-64
2022/05/09 07:05:56;;;;;;;10.13;9.07;;;16.50;1.00;;;;;;7368458;19;20561;-63
2022/05/09 07:08:32;;;;;;;11.30;9.30;;;16.50;1.00;;;;;;7367006;19;20522;-64
2022/05/09 07:11:06;;;;;;;11.45;9.43;;;16.40;1.00;;;;;;7362888;19;20095;-64
2022/05/09 07:13:52;;;;;;;9.68;8.68;;;16.40;1.00;;;;;;7368796;19;20006;-63
2022/05/09 07:16:23;;;;;;;10.10;9.10;;;16.50;1.00;;;;;;7370117;19;20010;-63
2022/05/09 07:19:00;;;;;;;9.88;8.85;;;16.60;1.00;;;;;;7383856;19;20507;-65
2022/05/09 07:21:30;;;;;;;10.20;8.77;;;16.90;1.00;;;;;;7366245;19;20074;-63
2022/05/09 07:24:00;;;;;;;12.02;8.65;;;17.20;1.00;;;;;;7368353;19;20111;-63
2022/05/09 07:26:33;;;;;;;10.15;8.60;;;17.30;1.00;;;;;;7368619;19;20010;-62
2022/05/09 07:29:02;;;;;;;10.48;9.32;;;17.30;1.00;;;;;;7361366;19;20010;-64
2022/05/09 07:31:32;;;;;;;9.55;8.52;;;17.10;1.00;;;;;;7365705;19;20410;-63
2022/05/09 07:34:02;;;;;;;10.25;8.80;;;17.00;1.00;;;;;;7387342;19;20102;-63
2022/05/09 07:36:33;;;;;;;12.80;8.93;;;17.30;1.00;;;;;;7368255;19;20010;-63
2022/05/09 07:39:03;;;;;;;10.05;8.98;;;17.70;1.00;;;;;;7360587;19;20466;-63
2022/05/09 07:41:36;;;;;;;8.68;7.78;;;17.50;1.00;;;;;;7366725;19;20007;-63
2022/05/09 07:44:06;;;;;;;8.77;7.75;;;17.70;1.00;;;;;;7367730;19;20006;-63
2022/05/09 07:46:36;;;;;;;9.45;8.55;;;18.20;1.00;;;;;;7368979;19;20146;-63
2022/05/09 07:49:14;;;;;;;18.55;8.25;;;18.00;1.00;;;;;;7362185;19;20025;-64
2022/05/09 07:51:44;;;;;;;10.20;8.65;;;17.90;1.00;;;;;;7386538;19;20002;-63
2022/05/09 07:54:14;;;;;;;12.35;9.25;;;18.10;1.00;;;;;;7366082;19;20077;-64
2022/05/09 07:56:46;;;;;;;11.40;9.73;;;18.10;1.00;;;;;;7369550;19;20082;-63
2022/05/09 07:59:17;;;;;;;9.45;8.45;;;18.20;1.00;;;;;;7360939;19;20541;-63
2022/05/09 08:01:48;;;;;;;9.52;7.80;;;18.20;1.00;;;;;;7366914;19;20508;-64
2022/05/09 08:04:18;;;;;;;9.38;8.48;;;17.90;1.00;;;;;;7366931;19;20007;-63
2022/05/09 08:06:48;;;;;;;9.52;8.40;;;17.90;1.00;;;;;;7389992;19;20090;-64
2022/05/09 08:09:18;;;;;;;9.27;8.35;;;18.30;1.00;;;;;;7360148;19;20010;-64
2022/05/09 08:11:51;;;;;;;9.27;8.35;;;18.40;1.00;;;;;;7365953;19;20074;-63
2022/05/09 08:14:21;;;;;;;10.55;9.07;;;18.30;1.00;;;;;;7365935;19;20011;-63
2022/05/09 08:16:50;;;;;;;9.63;8.48;;;18.40;1.00;;;;;;7368811;19;20007;-63
2022/05/09 08:19:21;;;;;;;9.88;8.02;;;18.40;1.00;;;;;;7361894;19;20021;-63
2022/05/09 08:21:52;;;;;;;8.95;8.05;;;18.80;1.00;;;;;;7383522;19;20017;-63
2022/05/09 08:24:29;;;;;;;9.57;8.07;;;18.80;1.00;;;;;;7366155;19;20013;-64
2022/05/09 08:27:01;;;;;;;10.52;7.80;;;19.10;1.00;;;;;;7367306;19;20466;-64
2022/05/09 08:29:31;;;;;;;11.45;9.43;;;19.30;1.00;;;;;;7360909;19;20002;-63
2022/05/09 08:32:01;;;;;;;10.05;8.88;;;18.90;1.00;;;;;;7362917;19;20003;-64
2022/05/09 08:34:31;;;;;;;10.52;8.55;;;18.90;1.00;;;;;;7366506;19;20010;-63
2022/05/09 08:37:00;;;;;;;10.55;9.18;;;18.90;1.00;;;;;;7389079;19;20465;-63
2022/05/09 08:39:32;;;;;;;10.35;9.15;;;18.80;1.00;;;;;;7361389;19;20014;-62
2022/05/09 08:42:06;;;;;;;10.45;9.20;;;18.80;1.00;;;;;;7363181;19;20018;-63
2022/05/09 08:45:07;;;;;;;11.57;8.30;;;19.10;1.00;;;;;;7365101;19;20017;-64
2022/05/09 08:47:56;;;;;;;13.10;8.43;;;19.10;1.00;;;;;;7367479;19;20446;-65
2022/05/09 08:50:31;;;;;;;12.07;8.88;;;18.60;1.00;;;;;;7359955;19;20018;-63
2022/05/09 08:53:03;;;;;;;10.65;7.88;;;18.90;1.00;;;;;;7365109;19;20396;-63
2022/05/09 08:55:38;;;;;;;9.88;7.80;;;19.20;1.00;;;;;;7364575;19;20027;-63
2022/05/09 08:58:19;;;;;;;;;;;19.20;1.00;;;;;;7388479;19;20030;-63
2022/05/09 09:00:52;;;;;;;9.10;8.02;;;19.30;1.00;;;;;;7361807;19;20487;-64
2022/05/09 09:03:29;;;;;;;16.42;8.15;;;19.40;1.00;;;;;;7366219;19;20482;-64
2022/05/09 09:06:05;;;;;;;9.70;8.70;;;19.50;1.00;;;;;;7365410;19;20406;-63
2022/05/09 09:08:45;;;;;;;9.55;8.30;;;19.70;1.00;;;;;;7362991;19;20014;-63
2022/05/09 09:11:22;;;;;;;8.35;7.55;;;19.40;1.00;;;;;;7361412;19;20360;-64
2022/05/09 09:14:06;;;;;;;8.95;7.47;;;19.60;1.00;;;;;;7365831;19;20010;-64
2022/05/09 09:17:04;;;;;;;9.43;8.18;;;20.00;1.00;;;;;;7366034;19;20147;-64
2022/05/09 09:19:49;;;;;;;10.45;7.40;;;19.90;1.00;;;;;;7359050;19;20720;-63
2022/05/09 09:22:33;;;;;;;13.70;7.35;;;19.80;1.00;;;;;;7362603;19;20138;-63
2022/05/09 09:25:26;;;;;;;9.05;6.78;;;20.40;1.00;;;;;;7385785;19;20021;-62
2022/05/09 09:28:00;;;;;;;10.80;9.43;;;20.70;1.00;;;;;;7365326;19;20106;-63
2022/05/09 09:30:34;;;;;;;10.98;9.07;;;20.20;1.00;;;;;;7358446;19;20016;-62
2022/05/09 09:33:06;;;;;;;9.32;7.97;;;20.50;1.00;;;;;;7363105;19;20010;-63
2022/05/09 09:35:45;;;;;;;10.50;8.63;;;20.60;1.00;;;;;;7364506;19;20013;-63
2022/05/09 09:38:23;;;;;;;8.88;7.97;;;20.20;1.00;;;;;;7364912;19;20136;-63
2022/05/09 09:40:53;;;;;;;10.40;7.80;;;20.50;1.00;;;;;;7359533;19;20089;-62
2022/05/09 09:43:23;;;;;;;9.85;7.43;;;20.40;1.00;;;;;;7365408;19;20348;-63
2022/05/09 09:46:07;;;;;;;10.55;8.68;;;21.30;1.00;;;;;;7385195;19;20018;-64
2022/05/09 09:48:37;;;;;;;8.60;7.70;;;20.90;1.00;;;;;;7361543;19;20031;-62
2022/05/09 09:51:10;;;;;;;10.15;7.03;;;20.90;1.00;;;;;;7357819;19;20045;-62
2022/05/09 09:53:43;;;;;;;9.57;7.28;;;21.20;1.00;;;;;;7364341;19;20026;-62
2022/05/09 09:56:27;;;;;;;8.38;7.45;;;21.80;1.00;;;;;;7366812;19;20002;-64
2022/05/09 09:59:01;;;;;;;10.68;8.23;;;21.90;1.00;;;;;;7366540;19;20043;-64
2022/05/09 10:01:34;;;;;;;9.45;8.00;;;21.30;1.00;;;;;;7368861;19;20094;-63
2022/05/09 10:04:12;;;;;;;8.93;7.38;;;21.30;1.00;;;;;;7393381;19;20047;-64
2022/05/09 10:07:00;;;;;;;9.70;7.55;;;21.70;1.00;;;;;;7371955;19;20109;-64
2022/05/09 10:09:32;;;;;;;9.23;7.28;;;21.70;1.00;;;;;;7364918;19;20017;-63
2022/05/09 10:12:18;;;;;;;9.68;7.70;;;21.40;1.00;;;;;;7367162;19;20567;-63
2022/05/09 10:14:48;;;;;;;9.20;7.90;;;21.30;1.00;;;;;;7370086;19;20016;-64
2022/05/09 10:17:29;;;;;;;8.70;7.40;;;21.60;1.00;;;;;;7372378;19;20007;-64
2022/05/09 10:20:01;;;;;;;8.13;7.32;;;21.40;1.00;;;;;;7365046;19;20015;-63
2022/05/09 10:25:19;;;;;;;7.95;6.93;;;21.80;1.00;;;;;;7370331;19;20038;-66
2022/05/09 10:28:03;;;;;;;8.13;6.40;;;21.90;1.00;;;;;;7392678;19;20082;-65
2022/05/09 10:30:36;;;;;;;8.55;7.05;;;22.20;1.00;;;;;;7362984;19;20010;-63
2022/05/09 10:33:15;;;;;;;7.75;6.95;;;22.80;1.00;;;;;;7368199;19;20063;-63
2022/05/09 10:35:56;;;;;;;11.73;6.90;;;22.40;1.00;;;;;;7370302;19;20010;-64
2022/05/09 10:38:33;;;;;;;12.00;7.10;;;21.90;1.00;;;;;;7368781;19;20006;-62
2022/05/09 10:41:12;;;;;;;9.90;6.63;;;21.80;1.00;;;;;;7365490;19;20503;-64
2022/05/09 10:43:50;;;;;;;7.47;6.65;;;22.70;1.00;;;;;;7369776;19;20411;-64
2022/05/09 10:46:22;;;;;;;10.45;6.57;;;22.60;1.00;;;;;;7370507;19;20114;-63
2022/05/09 10:49:01;;;;;;;7.55;6.72;;;22.20;1.00;;;;;;7386116;19;20017;-63
2022/05/09 10:51:38;;;;;;;8.80;6.05;;;22.80;1.00;;;;;;7367644;19;20010;-63
2022/05/09 10:54:24;;;;;;;7.03;5.40;;;22.60;1.00;;;;;;7369383;19;20010;-63
2022/05/09 10:57:03;;;;;;;8.98;5.95;;;22.60;1.00;;;;;;7369105;19;20015;-64
2022/05/09 10:59:35;;;;;;;7.65;5.57;;;23.00;1.00;;;;;;7364763;19;20006;-62
2022/05/09 11:02:12;;;;;;;6.35;5.75;;;23.00;1.00;;;;;;7366062;19;20022;-64
2022/05/09 11:04:45;;;;;;;9.45;5.00;;;22.80;1.00;;;;;;7366403;19;20063;-63
2022/05/09 11:07:27;;;;;;;5.82;5.18;;;22.80;1.00;;;;;;7366526;19;20015;-63
2022/05/09 11:10:30;;;;;;;7.82;4.97;;;22.60;1.00;;;;;;7380427;19;20014;-63
2022/05/09 11:13:12;;;;;;;6.00;5.45;;;22.40;1.00;;;;;;7357174;19;20010;-64
2022/05/09 11:15:53;;;;;;;6.88;5.15;;;23.00;1.00;;;;;;7364525;19;20006;-64
2022/05/09 11:18:46;;;;;;;5.25;4.75;;;23.10;1.00;;;;;;7366027;19;20011;-64
2022/05/09 11:21:34;;;;;;;6.80;4.82;;;22.90;1.00;;;;;;7365688;19;20007;-63
2022/05/09 11:24:15;;;;;;;5.13;4.63;;;23.10;1.00;;;;;;7367547;19;20098;-62
2022/05/09 11:26:53;;;;;;;7.05;4.90;;;22.90;1.00;;;;;;7368830;19;20420;-63
2022/05/09 11:29:42;;;;;;;7.57;4.35;;;23.20;1.00;;;;;;7362926;19;20014;-64
2022/05/09 11:32:38;;;;;;;4.97;4.57;;;23.40;1.00;;;;;;7364945;19;20010;-63
2022/05/09 11:35:30;;;;;;;8.15;4.80;;;24.00;1.00;;;;;;7368332;19;20093;-63
2022/05/09 11:38:34;;;;;;;5.35;4.40;;;23.90;1.00;;;;;;7370574;19;20010;-64
2022/05/09 11:41:18;;;;;;;6.55;4.72;;;23.80;1.00;;;;;;7362185;19;20498;-63
2022/05/09 11:43:54;;;;;;;;;;;23.60;1.00;;;;;;7369209;19;20576;-63
2022/05/09 11:46:45;;;;;;;4.65;4.25;;;23.50;1.00;;;;;;7368751;19;20287;-64
2022/05/09 11:49:36;;;;;;;6.32;4.30;;;23.70;1.00;;;;;;7361567;19;20082;-64
2022/05/09 11:52:10;;;;;;;5.53;4.63;;;23.60;1.00;;;;;;7386720;19;20006;-64
2022/05/09 11:54:47;;;;;;;5.38;4.22;;;24.10;1.00;;;;;;7366891;19;20006;-64
2022/05/09 11:57:26;;;;;;;5.35;4.82;;;23.50;1.00;;;;;;7367452;19;20426;-65
2022/05/09 11:59:58;;;;;;;5.00;4.28;;;22.90;1.00;;;;;;7361925;19;20013;-64
2022/05/09 12:02:47;;;;;;;4.80;4.40;;;22.80;1.00;;;;;;7364212;19;20017;-63
2022/05/09 12:05:50;;;;;;;7.70;4.47;;;23.40;1.00;;;;;;7367446;19;20392;-63
2022/05/09 12:08:21;;;;;;;4.65;4.18;;;23.90;1.00;;;;;;7368804;19;20085;-63
2022/05/09 12:11:27;;;;;;;5.55;4.20;;;23.70;1.00;;;;;;7361631;19;20078;-64
2022/05/09 12:13:59;;;;;;;6.78;5.05;;;24.20;1.00;;;;;;7366769;19;20010;-64
2022/05/09 12:16:55;;;;;;;4.95;4.45;;;24.00;1.00;;;;;;7368286;19;20051;-63
2022/05/09 12:19:34;;;;;;;8.43;4.20;;;23.90;1.00;;;;;;7359237;19;20021;-64
2022/05/09 12:22:39;;;;;;;4.80;4.38;;;24.10;1.00;;;;;;7385401;19;20459;-63
2022/05/09 12:25:10;;;;;;;;;;;23.90;1.00;;;;;;7264335;19;2004496;-65
2022/05/09 12:28:09;;;;;;;5.85;4.22;;;24.10;1.00;;;;;;7390575;19;19921;-64
2022/05/09 12:30:51;;;;;;;4.50;4.10;;;24.60;1.00;;;;;;7360907;19;20013;-63
2022/05/09 12:33:31;;;;;;;5.05;3.78;;;24.00;1.00;;;;;;7366443;19;20050;-63
2022/05/09 12:36:04;;;;;;;5.55;3.40;;;24.10;1.00;;;;;;7366623;19;20059;-65
2022/05/09 12:38:37;;;;;;;4.13;3.50;;;24.20;1.00;;;;;;7364465;19;20497;-64
2022/05/09 12:41:12;;;;;;;7.85;3.90;;;24.50;1.00;;;;;;7361546;19;20797;-64
2022/05/09 12:43:49;;;;;;;4.82;3.92;;;24.50;1.00;;;;;;7367552;19;20014;-63
2022/05/09 12:46:25;;;;;;;4.57;3.83;;;24.40;1.00;;;;;;7366749;19;20010;-63
2022/05/09 12:48:58;;;;;;;4.32;3.92;;;23.80;1.00;;;;;;7382634;19;20043;-64
2022/05/09 12:51:29;;;;;;;5.10;3.63;;;23.80;1.00;;;;;;7362717;19;20506;-63
2022/05/09 12:54:00;;;;;;;4.70;3.80;;;24.20;1.00;;;;;;7362903;19;20007;-63
2022/05/09 12:56:30;;;;;;;5.57;4.07;;;24.50;1.00;;;;;;7366770;19;20073;-63
2022/05/09 12:59:08;;;;;;;5.18;3.47;;;24.20;1.00;;;;;;7360129;19;20011;-64
2022/05/09 13:01:43;;;;;;;8.15;3.85;;;24.20;1.00;;;;;;7363190;19;20107;-63
2022/05/09 13:04:36;;;;;;;5.80;3.95;;;24.20;1.00;;;;;;7365276;19;20030;-65
2022/05/09 13:07:09;;;;;;;6.00;4.95;;;24.90;1.00;;;;;;7388541;19;20010;-63
2022/05/09 13:09:49;;;;;;;5.55;3.97;;;25.20;1.00;;;;;;7360629;19;20033;-64
2022/05/09 13:12:26;;;;;;;4.30;3.88;;;24.80;1.00;;;;;;7362820;19;20010;-64
2022/05/09 13:15:01;;;;;;;4.32;3.90;;;25.00;1.00;;;;;;7363646;19;20013;-64
2022/05/09 13:17:37;;;;;;;7.43;4.22;;;25.00;1.00;;;;;;7366663;19;20495;-64
2022/05/09 13:20:11;;;;;;;4.47;3.90;;;24.80;1.00;;;;;;7358054;19;20372;-64
2022/05/09 13:22:48;;;;;;;6.57;3.70;;;25.30;1.00;;;;;;7360258;19;20051;-64
2022/05/09 13:25:21;;;;;;;7.43;4.13;;;25.60;1.00;;;;;;7362612;19;20461;-63
2022/05/09 13:27:53;;;;;;;4.47;4.00;;;25.30;1.00;;;;;;7386787;19;20085;-64
2022/05/09 13:30:26;;;;;;;4.60;4.10;;;24.60;1.00;;;;;;7360304;19;20609;-63
2022/05/09 13:32:58;;;;;;;3.90;3.60;;;24.80;1.00;;;;;;7368475;19;20287;-63
2022/05/09 13:35:30;;;;;;;5.53;3.67;;;24.50;1.00;;;;;;7370873;19;20014;-63
2022/05/09 13:37:59;;;;;;;5.30;3.80;;;24.50;1.00;;;;;;7373328;19;20023;-64